Time;durP1;ratioP1;P1;durP2;ratioP2;P2;SDS_P1;SDS_P2;PMS_P1;PMS_P2;Temp;Humidity;BMP_temperature;BMP_pressure;BME280_temperature;BME280_humidity;BME280_pressure;Samples;Min_cycle;Max_cycle;Signal;HPM_P1;HPM_P2
2022/07/13 00:04:48;;;;;;;2.63;1.88;;;21.70;60.30;;;;;;20544781;28;20046;-73
2022/07/13 00:14:49;;;;;;;2.03;1.63;;;21.60;60.30;;;;;;20530452;28;20030;-73
2022/07/13 00:24:50;;;;;;;2.75;1.95;;;21.60;60.40;;;;;;20566833;28;20050;-72
2022/07/13 00:34:50;;;;;;;4.28;1.80;;;21.60;60.40;;;;;;20553983;28;20086;-74
2022/07/13 00:44:51;;;;;;;2.10;1.77;;;21.60;60.50;;;;;;20536522;28;20038;-72
2022/07/13 00:54:51;;;;;;;4.85;2.28;;;21.60;60.60;;;;;;20852326;23;20039;-74
2022/07/13 01:04:52;;;;;;;2.78;1.52;;;21.60;60.70;;;;;;20454360;29;20031;-73
2022/07/13 01:14:53;;;;;;;2.22;1.65;;;21.60;60.80;;;;;;20448096;29;20047;-73
2022/07/13 01:24:54;;;;;;;1.90;1.60;;;21.60;60.80;;;;;;20451659;28;20111;-73
2022/07/13 01:34:54;;;;;;;2.80;1.80;;;21.60;60.90;;;;;;20443175;29;20027;-75
2022/07/13 01:44:55;;;;;;;2.22;1.80;;;21.60;60.90;;;;;;20432826;29;20043;-72
2022/07/13 01:54:56;;;;;;;2.10;1.63;;;21.60;60.90;;;;;;20434801;29;20675;-72
2022/07/13 02:04:57;;;;;;;2.28;1.88;;;21.60;61.00;;;;;;20454014;29;20178;-74
2022/07/13 02:14:58;;;;;;;2.10;1.42;;;21.50;61.00;;;;;;20474243;28;20046;-73
2022/07/13 02:24:59;;;;;;;1.88;1.55;;;21.50;61.10;;;;;;20466515;28;20043;-73
2022/07/13 02:35:00;;;;;;;2.72;1.60;;;21.50;61.20;;;;;;20416883;28;20043;-73
2022/07/13 02:45:01;;;;;;;1.65;1.35;;;21.50;61.30;;;;;;20459747;28;20090;-73
2022/07/13 02:55:01;;;;;;;2.10;1.60;;;21.50;61.30;;;;;;20428899;29;20123;-72
2022/07/13 03:05:02;;;;;;;2.22;1.52;;;21.50;61.40;;;;;;20461753;29;20031;-72
2022/07/13 03:15:03;;;;;;;2.58;1.83;;;21.50;61.50;;;;;;20430218;29;20040;-73
2022/07/13 03:25:05;;;;;;;1.90;1.25;;;21.50;61.60;;;;;;20444510;29;20497;-72
2022/07/13 03:35:06;;;;;;;6.20;3.05;;;21.50;61.60;;;;;;20429366;29;20118;-73
2022/07/13 03:45:07;;;;;;;1.67;1.27;;;21.50;61.60;;;;;;20427383;29;20066;-70
2022/07/13 03:55:09;;;;;;;2.67;1.60;;;21.50;61.60;;;;;;20404557;29;20391;-70
2022/07/13 04:05:10;;;;;;;2.42;1.58;;;21.50;61.70;;;;;;20453734;29;20036;-75
2022/07/13 04:15:12;;;;;;;1.88;1.33;;;21.50;61.80;;;;;;20440048;29;20035;-72
2022/07/13 04:25:14;;;;;;;2.72;1.80;;;21.50;61.90;;;;;;20440516;29;20086;-73
2022/07/13 04:35:16;;;;;;;2.80;1.60;;;21.40;61.90;;;;;;20432875;29;20541;-72
2022/07/13 04:45:20;;;;;;;2.78;1.40;;;21.40;62.00;;;;;;20440558;29;20062;-73
2022/07/13 04:55:24;;;;;;;2.43;1.30;;;21.40;62.00;;;;;;20417700;29;20044;-70
2022/07/13 05:05:25;;;;;;;2.25;1.33;;;21.40;62.20;;;;;;20434356;29;20785;-72
2022/07/13 05:15:26;;;;;;;4.22;1.63;;;21.40;62.30;;;;;;20429997;29;20530;-76
2022/07/13 05:25:28;;;;;;;1.63;1.20;;;21.40;62.50;;;;;;20411382;29;20091;-73
2022/07/13 05:35:29;;;;;;;2.83;1.52;;;21.40;62.70;;;;;;20405748;29;20071;-74
2022/07/13 05:45:29;;;;;;;1.50;1.20;;;21.40;63.00;;;;;;20413341;29;20078;-72
2022/07/13 05:55:30;;;;;;;3.85;1.90;;;21.40;63.20;;;;;;20433437;29;20772;-71
2022/07/13 06:05:31;;;;;;;2.40;1.30;;;21.40;63.50;;;;;;20461105;29;20090;-72
2022/07/13 06:15:32;;;;;;;1.35;1.00;;;21.30;63.80;;;;;;20466528;28;20050;-74
2022/07/13 06:25:32;;;;;;;3.13;1.30;;;21.40;64.10;;;;;;20450416;29;20035;-73
2022/07/13 06:35:33;;;;;;;2.47;0.98;;;21.40;64.30;;;;;;20460811;28;20307;-72
2022/07/13 06:45:34;;;;;;;1.70;1.17;;;21.40;64.30;;;;;;20462512;28;20043;-72
2022/07/13 06:55:34;;;;;;;2.33;0.93;;;21.50;64.30;;;;;;20440511;29;20050;-72
2022/07/13 07:05:35;;;;;;;1.02;0.75;;;21.50;64.10;;;;;;20472523;29;20039;-74
2022/07/13 07:15:36;;;;;;;2.27;1.07;;;21.60;63.80;;;;;;20455622;28;20042;-72
2022/07/13 07:25:36;;;;;;;1.15;0.80;;;21.60;63.60;;;;;;20465038;29;20349;-71
2022/07/13 07:35:37;;;;;;;1.70;0.80;;;21.60;63.40;;;;;;20461811;29;20047;-72
2022/07/13 07:45:38;;;;;;;1.15;0.65;;;21.70;63.20;;;;;;20442445;29;20050;-72
2022/07/13 07:55:38;;;;;;;2.28;0.80;;;21.80;63.00;;;;;;20429277;29;20138;-71
2022/07/13 08:05:41;;;;;;;1.70;1.10;;;21.80;62.70;;;;;;20437535;29;20039;-72
2022/07/13 08:15:41;;;;;;;1.17;0.90;;;21.80;62.50;;;;;;20420609;29;20031;-71
2022/07/13 08:25:42;;;;;;;4.15;0.90;;;21.90;62.40;;;;;;20456479;29;20040;-71
2022/07/13 08:46:06;;;;;;;1.02;0.40;;;21.90;62.00;;;;;;20472210;29;20032;-71
2022/07/13 08:56:07;;;;;;;2.17;0.90;;;22.00;62.00;;;;;;20435578;29;20044;-71
2022/07/13 09:06:08;;;;;;;1.92;0.77;;;22.00;61.80;;;;;;20483640;29;20035;-72
2022/07/13 09:16:18;;;;;;;1.25;0.75;;;22.00;61.50;;;;;;20425846;29;20046;-72
2022/07/13 09:26:21;;;;;;;1.40;0.70;;;22.10;61.30;;;;;;20458283;29;20107;-72
2022/07/13 09:36:23;;;;;;;5.32;0.93;;;22.10;61.20;;;;;;20460021;29;20035;-72
2022/07/13 09:46:24;;;;;;;1.88;0.70;;;22.20;60.90;;;;;;20453199;28;20039;-71
2022/07/13 09:56:24;;;;;;;2.10;1.20;;;22.20;60.80;;;;;;20446432;28;20487;-71
2022/07/13 10:06:25;;;;;;;6.50;1.80;;;22.20;60.80;;;;;;20454661;29;20047;-70
2022/07/13 10:16:29;;;;;;;4.60;1.60;;;22.20;60.70;;;;;;20447473;29;20127;-70
2022/07/13 10:26:31;;;;;;;4.77;1.13;;;22.20;60.70;;;;;;20455569;29;20051;-70
2022/07/13 10:36:52;;;;;;;5.65;1.80;;;22.20;60.80;;;;;;20452809;29;20039;-69
2022/07/13 10:46:53;;;;;;;2.55;1.27;;;22.30;60.90;;;;;;20444411;29;20051;-69
2022/07/13 10:57:12;;;;;;;2.80;1.15;;;22.30;60.90;;;;;;20448281;28;20478;-70
2022/07/13 11:07:12;;;;;;;2.63;1.52;;;22.30;60.90;;;;;;20432666;28;20035;-69
2022/07/13 11:17:20;;;;;;;2.78;1.05;;;22.30;60.60;;;;;;20459616;29;20548;-69
2022/07/13 11:27:21;;;;;;;1.80;1.13;;;22.40;60.50;;;;;;20443395;29;20043;-70
2022/07/13 11:37:25;;;;;;;3.70;1.08;;;22.40;60.50;;;;;;20433981;29;20062;-69
2022/07/13 11:47:26;;;;;;;1.80;1.07;;;22.40;60.40;;;;;;20442534;29;20402;-69
2022/07/13 11:57:27;;;;;;;2.75;1.50;;;22.40;60.20;;;;;;20404191;29;20051;-70
2022/07/13 12:07:29;;;;;;;3.97;1.20;;;22.50;60.10;;;;;;20398437;29;20106;-68
2022/07/13 12:17:40;;;;;;;1.70;1.00;;;22.50;60.00;;;;;;20416891;29;20462;-69
2022/07/13 12:27:40;;;;;;;1.17;0.75;;;22.50;59.90;;;;;;20390470;29;20038;-68
2022/07/13 12:37:41;;;;;;;1.02;0.85;;;22.50;59.90;;;;;;20415034;29;20031;-67
2022/07/13 12:47:42;;;;;;;3.50;0.98;;;22.60;59.80;;;;;;20414770;29;20463;-68
2022/07/13 12:57:42;;;;;;;1.58;0.90;;;22.60;59.80;;;;;;20413540;29;20475;-67
2022/07/13 13:07:43;;;;;;;1.05;0.75;;;22.70;59.90;;;;;;20410055;29;20470;-68
2022/07/13 13:17:43;;;;;;;4.13;0.83;;;22.70;59.90;;;;;;20397103;29;20048;-72
2022/07/13 13:27:44;;;;;;;2.63;1.10;;;22.80;59.90;;;;;;20465524;28;20271;-71
2022/07/13 13:37:46;;;;;;;2.17;0.90;;;22.80;59.70;;;;;;20444578;29;20043;-71
2022/07/13 13:47:47;;;;;;;0.93;0.63;;;22.80;59.60;;;;;;20436263;29;20294;-71
2022/07/13 13:57:48;;;;;;;1.90;0.80;;;22.90;59.70;;;;;;20444018;29;20043;-71
2022/07/13 14:07:48;;;;;;;1.70;1.10;;;22.90;59.60;;;;;;20437289;29;20512;-71
2022/07/13 14:17:49;;;;;;;2.15;1.30;;;22.90;59.60;;;;;;20445276;29;20043;-72
2022/07/13 14:27:50;;;;;;;2.17;1.30;;;22.90;59.70;;;;;;20434647;29;20035;-70
2022/07/13 14:37:51;;;;;;;1.50;1.05;;;22.90;59.70;;;;;;20449136;29;20047;-71
2022/07/13 14:47:51;;;;;;;1.63;0.95;;;22.90;59.80;;;;;;20474324;28;20379;-71
2022/07/13 14:57:52;;;;;;;1.25;1.10;;;22.90;59.80;;;;;;20428356;29;20650;-71
2022/07/13 15:07:52;;;;;;;1.50;1.02;;;23.00;59.80;;;;;;20464361;29;20115;-73
2022/07/13 15:17:53;;;;;;;1.27;0.98;;;23.00;59.70;;;;;;20433320;29;20050;-71
2022/07/13 15:27:53;;;;;;;1.58;1.05;;;23.10;59.60;;;;;;20459158;29;20036;-76
2022/07/13 15:37:54;;;;;;;1.50;1.00;;;23.20;60.10;;;;;;20459665;29;20042;-74
2022/07/13 15:47:55;;;;;;;2.17;1.10;;;23.30;59.40;;;;;;20451424;29;20028;-75
2022/07/13 15:57:55;;;;;;;1.58;1.10;;;23.40;59.40;;;;;;20447338;29;20126;-76
2022/07/13 16:07:56;;;;;;;1.80;1.27;;;23.40;59.40;;;;;;20430865;29;20732;-78
2022/07/13 16:17:56;;;;;;;2.90;1.83;;;23.50;59.40;;;;;;20462908;28;20051;-75
2022/07/13 16:27:57;;;;;;;8.05;1.77;;;23.60;59.50;;;;;;20443584;29;20035;-74
2022/07/13 16:37:57;;;;;;;3.10;1.90;;;23.60;59.50;;;;;;20440254;28;20470;-77
2022/07/13 16:48:04;;;;;;;3.47;2.05;;;23.70;59.50;;;;;;20400759;29;20633;-73
2022/07/13 16:58:05;;;;;;;5.18;2.10;;;23.90;59.60;;;;;;20422546;29;20472;-76
2022/07/13 17:08:06;;;;;;;4.65;2.03;;;24.10;59.90;;;;;;20423308;29;20032;-76
2022/07/13 17:18:06;;;;;;;3.70;2.53;;;24.20;60.10;;;;;;20416012;29;20040;-76
2022/07/13 17:28:07;;;;;;;5.18;2.67;;;24.30;60.00;;;;;;20429943;29;20155;-74
2022/07/13 17:38:08;;;;;;;3.25;2.30;;;24.30;59.90;;;;;;20412523;29;20043;-78
2022/07/13 17:48:10;;;;;;;5.28;1.92;;;24.20;59.70;;;;;;20428124;29;20035;-74
2022/07/13 17:58:10;;;;;;;2.10;1.50;;;24.10;59.50;;;;;;20427466;29;20038;-79
2022/07/13 18:08:11;;;;;;;2.35;1.90;;;24.10;59.50;;;;;;20424987;29;20038;-75
2022/07/13 18:18:12;;;;;;;2.97;1.67;;;24.10;60.10;;;;;;20425332;29;20406;-71
2022/07/13 18:28:12;;;;;;;2.42;1.60;;;24.00;59.40;;;;;;20424984;29;20019;-72
2022/07/13 18:38:13;;;;;;;2.35;1.48;;;23.90;59.50;;;;;;20404435;29;20036;-72
2022/07/13 18:48:13;;;;;;;1.63;1.17;;;23.90;59.60;;;;;;20405859;29;20550;-72
2022/07/13 18:58:14;;;;;;;2.50;1.60;;;23.80;59.70;;;;;;20421188;29;20410;-73
2022/07/13 19:08:15;;;;;;;2.22;1.45;;;23.80;59.70;;;;;;20408804;29;20035;-76
2022/07/13 19:18:15;;;;;;;2.00;1.50;;;23.70;59.70;;;;;;20454677;29;20042;-78
2022/07/13 19:28:16;;;;;;;3.85;1.42;;;23.70;59.90;;;;;;20444666;29;20035;-77
2022/07/13 19:38:17;;;;;;;5.28;1.67;;;23.60;60.00;;;;;;20436899;28;20074;-77
2022/07/13 19:48:17;;;;;;;2.03;1.17;;;23.50;60.00;;;;;;20436238;29;20043;-77
2022/07/13 19:58:18;;;;;;;2.72;1.35;;;23.50;59.70;;;;;;20446662;29;20049;-77
2022/07/13 20:08:19;;;;;;;2.70;1.35;;;23.40;59.30;;;;;;20454779;29;20062;-76
2022/07/13 20:18:20;;;;;;;1.92;1.30;;;23.40;58.90;;;;;;20435757;29;20077;-77
2022/07/13 20:28:21;;;;;;;1.50;1.10;;;23.40;58.40;;;;;;20435224;28;20062;-77
2022/07/13 20:38:22;;;;;;;2.28;0.90;;;23.40;59.00;;;;;;20468536;29;20299;-77
2022/07/13 20:48:22;;;;;;;3.58;1.20;;;23.40;58.20;;;;;;20470030;29;20031;-77
2022/07/13 20:58:23;;;;;;;2.22;1.70;;;23.30;58.10;;;;;;20447869;29;20053;-77
2022/07/13 21:08:23;;;;;;;1.67;1.20;;;23.30;58.20;;;;;;20450903;29;20024;-78
2022/07/13 21:18:24;;;;;;;2.85;1.55;;;23.30;58.30;;;;;;20451497;29;20459;-77
2022/07/13 21:28:34;;;;;;;1.60;1.13;;;23.20;58.40;;;;;;20451398;29;20051;-77
2022/07/13 21:38:34;;;;;;;1.50;1.00;;;23.20;58.50;;;;;;20445152;29;20295;-77
2022/07/13 21:48:36;;;;;;;1.10;0.90;;;23.20;58.60;;;;;;20467489;28;20042;-77
2022/07/13 21:58:36;;;;;;;2.33;1.45;;;23.20;58.80;;;;;;20440613;29;20305;-77
2022/07/13 22:08:37;;;;;;;3.77;1.80;;;23.20;58.90;;;;;;20436291;29;20031;-78
2022/07/13 22:19:15;;;;;;;1.40;1.02;;;23.10;58.90;;;;;;20466501;28;20307;-77
2022/07/13 22:29:53;;;;;;;2.53;1.10;;;23.10;59.10;;;;;;20447617;29;20129;-77
2022/07/13 22:40:32;;;;;;;2.33;1.60;;;23.10;59.30;;;;;;20462262;29;20446;-77
2022/07/13 22:51:10;;;;;;;2.33;1.20;;;23.10;59.50;;;;;;20450401;28;20475;-77
2022/07/13 23:01:48;;;;;;;1.52;1.02;;;23.10;59.50;;;;;;20455823;29;20474;-77
2022/07/13 23:12:27;;;;;;;1.45;0.93;;;23.00;59.60;;;;;;20450981;29;20409;-77
2022/07/13 23:23:05;;;;;;;1.45;1.10;;;23.00;59.60;;;;;;20452531;29;20110;-77
2022/07/13 23:33:06;;;;;;;5.00;1.52;;;23.00;59.70;;;;;;20461640;28;20039;-77
2022/07/13 23:43:06;;;;;;;7.85;1.60;;;23.00;59.70;;;;;;20459649;29;20043;-77
2022/07/13 23:53:07;;;;;;;2.22;1.10;;;22.90;59.70;;;;;;20448283;28;20043;-77
